Time,TemperatureF,DewpointF,PressureIn,WindDirection,WindDirectionDegrees,WindSpeedMPH,WindSpeedGustMPH,Humidity,HourlyPrecipIn,Conditions,Clouds,dailyrainin,SoftwareType,DateUTC
2013-07-24 00:02:00,60.3,54.9,30.01,NNE,12,0.0,0.0,82,-99.99,,,0.00,1-wire,2013-07-24 05:02:00,
2013-07-24 00:07:00,60.2,55.0,30.01,NNE,13,0.0,0.0,83,-99.99,,,0.00,1-wire,2013-07-24 05:07:00,
2013-07-24 00:12:00,60.0,54.9,30.01,NNE,13,0.0,0.0,83,-99.99,,,0.00,1-wire,2013-07-24 05:12:00,
2013-07-24 00:17:00,59.9,55.1,30.01,NNE,13,0.0,0.0,84,-99.99,,,0.00,1-wire,2013-07-24 05:17:00,
2013-07-24 00:22:00,59.8,55.0,30.01,NNE,22,0.0,0.0,84,-99.99,,,0.00,1-wire,2013-07-24 05:22:00,
2013-07-24 00:28:00,59.8,54.9,30.01,NNE,22,0.0,0.0,84,-99.99,,,0.00,1-wire,2013-07-24 05:28:00,
2013-07-24 00:34:00,59.7,55.0,30.01,NNE,22,0.0,0.0,84,-99.99,,,0.00,1-wire,2013-07-24 05:34:00,
2013-07-24 00:40:00,59.7,55.0,30.01,NNE,24,0.0,0.0,84,-99.99,,,0.00,1-wire,2013-07-24 05:40:00,
2013-07-24 00:46:00,59.5,54.7,30.01,NNE,24,0.0,0.0,84,-99.99,,,0.00,1-wire,2013-07-24 05:46:00,
2013-07-24 00:52:00,59.6,54.2,30.02,NNE,30,0.0,0.0,82,-99.99,,,0.00,1-wire,2013-07-24 05:52:00,
2013-07-24 00:57:00,59.7,54.1,30.01,NNE,30,0.0,0.0,82,-99.99,,,0.00,1-wire,2013-07-24 05:57:00,
2013-07-24 01:02:00,60.2,54.1,30.02,NNE,30,0.0,0.0,80,-99.99,,,0.00,1-wire,2013-07-24 06:02:00,
2013-07-24 01:07:00,60.5,54.0,30.02,NNE,29,0.0,0.0,79,-99.99,,,0.00,1-wire,2013-07-24 06:07:00,
2013-07-24 01:12:00,60.6,54.1,30.02,NNE,29,0.0,3.0,79,-99.99,,,0.00,1-wire,2013-07-24 06:12:00,
2013-07-24 01:18:00,61.0,54.2,30.02,NNE,29,0.0,0.0,78,-99.99,,,0.00,1-wire,2013-07-24 06:18:00,
2013-07-24 01:24:00,61.3,54.7,30.02,NNE,26,0.0,0.0,79,-99.99,,,0.00,1-wire,2013-07-24 06:24:00,
2013-07-24 01:30:00,61.2,54.7,30.03,NNE,26,0.0,0.0,79,-99.99,,,0.00,1-wire,2013-07-24 06:30:00,
2013-07-24 01:36:00,60.6,54.3,30.03,NNE,29,0.0,3.0,80,-99.99,,,0.00,1-wire,2013-07-24 06:36:00,
2013-07-24 01:41:00,60.6,54.2,30.02,NNE,29,1.0,3.0,80,-99.99,,,0.00,1-wire,2013-07-24 06:41:00,
2013-07-24 01:46:00,60.7,54.4,30.02,NNE,29,0.0,3.0,80,-99.99,,,0.00,1-wire,2013-07-24 06:46:00,
2013-07-24 01:51:00,60.4,54.5,30.02,NNE,28,0.0,0.0,81,-99.99,,,0.00,1-wire,2013-07-24 06:51:00,
2013-07-24 01:56:00,60.4,54.3,30.02,NNE,28,0.0,0.0,80,-99.99,,,0.00,1-wire,2013-07-24 06:56:00,
2013-07-24 02:02:00,60.1,54.1,30.02,NNE,28,0.0,0.0,81,-99.99,,,0.00,1-wire,2013-07-24 07:02:00,
2013-07-24 02:08:00,60.3,54.3,30.02,ENE,65,0.0,0.0,81,-99.99,,,0.00,1-wire,2013-07-24 07:08:00,
2013-07-24 02:14:00,60.1,54.2,30.02,ENE,65,0.0,0.0,81,-99.99,,,0.00,1-wire,2013-07-24 07:14:00,
2013-07-24 02:19:00,59.9,54.1,30.03,ENE,65,0.0,0.0,81,-99.99,,,0.00,1-wire,2013-07-24 07:19:00,
2013-07-24 02:24:00,59.6,54.2,30.03,East,101,0.0,3.0,83,-99.99,,,0.00,1-wire,2013-07-24 07:24:00,
2013-07-24 02:29:00,59.6,54.3,30.03,East,101,0.0,0.0,83,-99.99,,,0.00,1-wire,2013-07-24 07:29:00,
2013-07-24 02:34:00,59.5,54.2,30.03,East,101,0.0,0.0,83,-99.99,,,0.00,1-wire,2013-07-24 07:34:00,
2013-07-24 02:39:00,59.3,53.9,30.03,East,96,0.0,0.0,82,-99.99,,,0.00,1-wire,2013-07-24 07:39:00,
2013-07-24 02:45:00,59.4,54.2,30.03,East,96,0.0,0.0,83,-99.99,,,0.00,1-wire,2013-07-24 07:45:00,
2013-07-24 02:50:00,58.8,53.7,30.03,East,96,0.0,0.0,83,-99.99,,,0.00,1-wire,2013-07-24 07:50:00,
2013-07-24 02:56:00,58.8,53.8,30.03,East,92,0.0,0.0,83,-99.99,,,0.00,1-wire,2013-07-24 07:56:00,
2013-07-24 03:01:00,58.7,53.7,30.03,East,92,0.0,0.0,83,-99.99,,,0.00,1-wire,2013-07-24 08:01:00,
2013-07-24 03:06:00,58.4,53.5,30.04,NNE,30,0.0,0.0,84,-99.99,,,0.00,1-wire,2013-07-24 08:06:00,
2013-07-24 03:11:00,58.3,53.6,30.03,NNE,30,0.0,0.0,84,-99.99,,,0.00,1-wire,2013-07-24 08:11:00,
2013-07-24 03:16:00,58.3,53.7,30.03,NNE,30,0.0,0.0,85,-99.99,,,0.00,1-wire,2013-07-24 08:16:00,
2013-07-24 03:21:00,57.9,53.3,30.03,NNE,26,0.0,0.0,85,-99.99,,,0.00,1-wire,2013-07-24 08:21:00,
2013-07-24 03:27:00,57.9,53.3,30.03,NNE,26,0.0,0.0,85,-99.99,,,0.00,1-wire,2013-07-24 08:27:00,
2013-07-24 03:32:00,58.0,53.3,30.03,NNE,26,0.0,0.0,84,-99.99,,,0.00,1-wire,2013-07-24 08:32:00,
2013-07-24 03:37:00,57.9,53.4,30.04,NNE,30,0.0,0.0,85,-99.99,,,0.00,1-wire,2013-07-24 08:37:00,
2013-07-24 03:42:00,57.7,53.3,30.04,NNE,30,0.0,0.0,85,-99.99,,,0.00,1-wire,2013-07-24 08:42:00,
2013-07-24 03:47:00,57.5,53.2,30.04,NNE,30,0.0,0.0,86,-99.99,,,0.00,1-wire,2013-07-24 08:47:00,
2013-07-24 03:52:00,57.6,53.3,30.04,NNE,28,0.0,0.0,85,-99.99,,,0.00,1-wire,2013-07-24 08:52:00,
2013-07-24 03:57:00,57.8,53.3,30.05,NNE,28,0.0,0.0,85,-99.99,,,0.00,1-wire,2013-07-24 08:57:00,
2013-07-24 04:02:00,57.3,52.9,30.05,NNE,28,0.0,0.0,85,-99.99,,,0.00,1-wire,2013-07-24 09:02:00,
2013-07-24 04:07:00,57.2,52.9,30.05,NNE,30,0.0,0.0,85,-99.99,,,0.00,1-wire,2013-07-24 09:07:00,
2013-07-24 04:12:00,57.1,52.9,30.05,NNE,30,0.0,0.0,86,-99.99,,,0.00,1-wire,2013-07-24 09:12:00,
2013-07-24 04:17:00,57.1,52.8,30.04,NNE,30,0.0,0.0,86,-99.99,,,0.00,1-wire,2013-07-24 09:17:00,
2013-07-24 04:22:00,56.9,52.7,30.05,NNE,29,0.0,0.0,86,-99.99,,,0.00,1-wire,2013-07-24 09:22:00,
2013-07-24 04:27:00,56.7,52.6,30.05,NNE,29,0.0,0.0,86,-99.99,,,0.00,1-wire,2013-07-24 09:27:00,
2013-07-24 04:32:00,56.5,52.4,30.05,NNE,29,0.0,0.0,86,-99.99,,,0.00,1-wire,2013-07-24 09:32:00,
2013-07-24 04:38:00,56.6,52.6,30.05,NNE,18,0.0,0.0,87,-99.99,,,0.00,1-wire,2013-07-24 09:38:00,
2013-07-24 04:43:00,56.4,52.4,30.05,NNE,18,0.0,0.0,86,-99.99,,,0.00,1-wire,2013-07-24 09:43:00,
2013-07-24 04:49:00,56.4,52.4,30.05,NNE,18,0.0,0.0,86,-99.99,,,0.00,1-wire,2013-07-24 09:49:00,
2013-07-24 04:55:00,56.2,52.3,30.05,North,354,0.0,0.0,87,-99.99,,,0.00,1-wire,2013-07-24 09:55:00,
2013-07-24 05:01:00,55.9,52.1,30.05,North,354,0.0,0.0,87,-99.99,,,0.00,1-wire,2013-07-24 10:01:00,
2013-07-24 05:07:00,55.9,51.9,30.05,NNW,333,0.0,0.0,86,-99.99,,,0.00,1-wire,2013-07-24 10:07:00,
2013-07-24 05:13:00,55.9,52.1,30.05,NNW,333,0.0,0.0,87,-99.99,,,0.00,1-wire,2013-07-24 10:13:00,
2013-07-24 05:18:00,55.9,52.0,30.05,NNW,333,0.0,0.0,87,-99.99,,,0.00,1-wire,2013-07-24 10:18:00,
2013-07-24 05:23:00,55.8,51.8,30.05,NNW,331,0.0,0.0,87,-99.99,,,0.00,1-wire,2013-07-24 10:23:00,
2013-07-24 05:28:00,55.8,52.1,30.05,NNW,331,0.0,0.0,87,-99.99,,,0.00,1-wire,2013-07-24 10:28:00,
2013-07-24 05:33:00,55.7,51.9,30.05,NNW,331,0.0,0.0,87,-99.99,,,0.00,1-wire,2013-07-24 10:33:00,
2013-07-24 05:39:00,55.7,51.9,30.05,North,0,0.0,0.0,87,-99.99,,,0.00,1-wire,2013-07-24 10:39:00,
2013-07-24 05:45:00,55.4,51.8,30.05,North,0,0.0,0.0,88,-99.99,,,0.00,1-wire,2013-07-24 10:45:00,
2013-07-24 05:51:00,55.9,52.2,30.05,North,6,0.0,0.0,87,-99.99,,,0.00,1-wire,2013-07-24 10:51:00,
2013-07-24 05:57:00,55.5,52.0,30.05,North,6,0.0,0.0,88,-99.99,,,0.00,1-wire,2013-07-24 10:57:00,
2013-07-24 06:02:00,55.6,52.2,30.05,North,6,0.0,0.0,88,-99.99,,,0.00,1-wire,2013-07-24 11:02:00,
2013-07-24 06:07:00,56.2,52.7,30.06,North,4,0.0,0.0,88,-99.99,,,0.00,1-wire,2013-07-24 11:07:00,
2013-07-24 06:12:00,56.2,52.7,30.06,North,4,0.0,0.0,88,-99.99,,,0.00,1-wire,2013-07-24 11:12:00,
2013-07-24 06:17:00,56.0,52.5,30.06,North,4,0.0,0.0,88,-99.99,,,0.00,1-wire,2013-07-24 11:17:00,
2013-07-24 06:23:00,56.0,52.4,30.07,NNW,347,0.0,0.0,88,-99.99,,,0.00,1-wire,2013-07-24 11:23:00,
2013-07-24 06:28:00,55.7,52.2,30.06,NNW,347,0.0,0.0,88,-99.99,,,0.00,1-wire,2013-07-24 11:28:00,
2013-07-24 06:33:00,55.8,52.3,30.07,NNW,347,0.0,0.0,88,-99.99,,,0.00,1-wire,2013-07-24 11:33:00,
2013-07-24 06:38:00,56.0,52.4,30.06,North,350,0.0,0.0,88,-99.99,,,0.00,1-wire,2013-07-24 11:38:00,
2013-07-24 06:44:00,56.3,52.9,30.06,North,350,0.0,0.0,89,-99.99,,,0.00,1-wire,2013-07-24 11:44:00,
2013-07-24 06:49:00,56.4,53.2,30.07,North,350,0.0,0.0,89,-99.99,,,0.00,1-wire,2013-07-24 11:49:00,
2013-07-24 06:54:00,56.7,53.4,30.07,NNE,13,0.0,0.0,89,-99.99,,,0.00,1-wire,2013-07-24 11:54:00,
2013-07-24 06:59:00,57.0,53.7,30.07,NNE,13,0.0,0.0,89,-99.99,,,0.00,1-wire,2013-07-24 11:59:00,
2013-07-24 07:04:00,57.1,54.0,30.07,NNE,13,0.0,0.0,89,-99.99,,,0.00,1-wire,2013-07-24 12:04:00,
2013-07-24 07:09:00,57.3,54.1,30.07,NNE,21,0.0,0.0,89,-99.99,,,0.00,1-wire,2013-07-24 12:09:00,
2013-07-24 07:14:00,57.8,54.5,30.08,NNE,21,0.0,0.0,89,-99.99,,,0.00,1-wire,2013-07-24 12:14:00,
2013-07-24 07:19:00,57.9,54.8,30.08,NNE,21,0.0,0.0,89,-99.99,,,0.00,1-wire,2013-07-24 12:19:00,
2013-07-24 07:24:00,58.4,55.2,30.08,NNE,30,0.0,0.0,89,-99.99,,,0.00,1-wire,2013-07-24 12:24:00,
2013-07-24 07:29:00,58.7,55.6,30.07,NNE,30,0.0,3.0,89,-99.99,,,0.00,1-wire,2013-07-24 12:29:00,
2013-07-24 07:34:00,59.2,56.0,30.08,NNE,30,0.0,0.0,89,-99.99,,,0.00,1-wire,2013-07-24 12:34:00,
2013-07-24 07:39:00,59.4,56.1,30.08,NNE,19,0.0,0.0,89,-99.99,,,0.00,1-wire,2013-07-24 12:39:00,
2013-07-24 07:44:00,59.6,56.2,30.08,NNE,19,0.0,0.0,89,-99.99,,,0.00,1-wire,2013-07-24 12:44:00,
2013-07-24 07:49:00,59.9,54.4,30.08,NNE,19,0.0,3.0,82,-99.99,,,0.00,1-wire,2013-07-24 12:49:00,
2013-07-24 07:54:00,60.5,54.9,30.08,NNE,22,1.0,3.0,82,-99.99,,,0.00,1-wire,2013-07-24 12:54:00,
2013-07-24 07:59:00,61.0,54.7,30.08,NNE,22,0.0,3.0,80,-99.99,,,0.00,1-wire,2013-07-24 12:59:00,
2013-07-24 08:04:00,61.5,54.3,30.08,NNE,22,0.0,0.0,77,-99.99,,,0.00,1-wire,2013-07-24 13:04:00,
2013-07-24 08:09:00,61.9,53.7,30.07,NNW,331,0.0,0.0,75,-99.99,,,0.00,1-wire,2013-07-24 13:09:00,
2013-07-24 08:14:00,62.1,53.2,30.08,NNW,331,1.0,3.0,73,-99.99,,,0.00,1-wire,2013-07-24 13:14:00,
2013-07-24 08:19:00,62.3,54.0,30.08,NNW,331,1.0,3.0,74,-99.99,,,0.00,1-wire,2013-07-24 13:19:00,
2013-07-24 08:24:00,62.7,53.1,30.08,NNE,29,0.0,0.0,71,-99.99,,,0.00,1-wire,2013-07-24 13:24:00,
2013-07-24 08:29:00,63.0,52.4,30.08,NNE,29,2.0,6.0,68,-99.99,,,0.00,1-wire,2013-07-24 13:29:00,
2013-07-24 08:34:00,63.4,52.1,30.08,NNE,29,1.0,3.0,67,-99.99,,,0.00,1-wire,2013-07-24 13:34:00,
2013-07-24 08:40:00,63.8,52.2,30.08,NNE,22,1.0,3.0,66,-99.99,,,0.00,1-wire,2013-07-24 13:40:00,
2013-07-24 08:45:00,64.3,52.9,30.09,NNE,22,0.0,0.0,67,-99.99,,,0.00,1-wire,2013-07-24 13:45:00,
2013-07-24 08:50:00,64.1,52.8,30.09,NNE,22,0.0,3.0,67,-99.99,,,0.00,1-wire,2013-07-24 13:50:00,
2013-07-24 08:55:00,64.1,52.5,30.09,NNE,29,0.0,0.0,66,-99.99,,,0.00,1-wire,2013-07-24 13:55:00,
2013-07-24 09:01:00,64.3,53.1,30.09,NNE,29,0.0,3.0,67,-99.99,,,0.00,1-wire,2013-07-24 14:01:00,
2013-07-24 09:07:00,65.0,53.5,30.09,NE,51,0.0,0.0,66,-99.99,,,0.00,1-wire,2013-07-24 14:07:00,
2013-07-24 09:12:00,65.6,54.2,30.09,NE,51,0.0,0.0,67,-99.99,,,0.00,1-wire,2013-07-24 14:12:00,
2013-07-24 09:17:00,65.8,51.8,30.09,NE,51,1.0,5.0,61,-99.99,,,0.00,1-wire,2013-07-24 14:17:00,
2013-07-24 09:23:00,65.9,51.6,30.09,SE,135,1.0,3.0,60,-99.99,,,0.00,1-wire,2013-07-24 14:23:00,
2013-07-24 09:28:00,66.8,52.6,30.09,SE,135,0.0,3.0,60,-99.99,,,0.00,1-wire,2013-07-24 14:28:00,
2013-07-24 09:33:00,66.8,52.5,30.09,SE,135,0.0,0.0,60,-99.99,,,0.00,1-wire,2013-07-24 14:33:00,
2013-07-24 09:38:00,66.7,53.4,30.10,SSE,159,0.0,0.0,62,-99.99,,,0.00,1-wire,2013-07-24 14:38:00,
2013-07-24 09:44:00,65.9,52.3,30.10,SSE,159,0.0,3.0,62,-99.99,,,0.00,1-wire,2013-07-24 14:44:00,
2013-07-24 09:49:00,66.0,53.5,30.10,SSE,159,0.0,0.0,64,-99.99,,,0.00,1-wire,2013-07-24 14:49:00,
2013-07-24 09:54:00,65.9,52.8,30.10,North,8,0.0,0.0,63,-99.99,,,0.00,1-wire,2013-07-24 14:54:00,
2013-07-24 09:59:00,65.0,51.0,30.10,North,8,0.0,0.0,60,-99.99,,,0.00,1-wire,2013-07-24 14:59:00,
2013-07-24 10:04:00,65.9,52.0,30.10,North,8,1.0,3.0,61,-99.99,,,0.00,1-wire,2013-07-24 15:04:00,
2013-07-24 10:09:00,66.7,53.1,30.09,NE,38,0.0,0.0,62,-99.99,,,0.00,1-wire,2013-07-24 15:09:00,
2013-07-24 10:14:00,67.4,53.3,30.10,NE,38,1.0,3.0,61,-99.99,,,0.00,1-wire,2013-07-24 15:14:00,
2013-07-24 10:19:00,67.9,52.7,30.09,NE,38,1.0,3.0,58,-99.99,,,0.00,1-wire,2013-07-24 15:19:00,
2013-07-24 10:24:00,67.5,52.0,30.09,NE,35,0.0,3.0,57,-99.99,,,0.00,1-wire,2013-07-24 15:24:00,
2013-07-24 10:29:00,67.7,52.0,30.09,NE,35,2.0,6.0,57,-99.99,,,0.00,1-wire,2013-07-24 15:29:00,
2013-07-24 10:34:00,67.9,52.4,30.09,NE,35,3.0,6.0,58,-99.99,,,0.00,1-wire,2013-07-24 15:34:00,
2013-07-24 10:39:00,67.9,51.8,30.10,NNE,30,1.0,3.0,56,-99.99,,,0.00,1-wire,2013-07-24 15:39:00,
2013-07-24 10:44:00,68.4,52.2,30.10,NNE,30,2.0,6.0,56,-99.99,,,0.00,1-wire,2013-07-24 15:44:00,
2013-07-24 10:49:00,68.8,52.1,30.09,NNE,30,2.0,6.0,55,-99.99,,,0.00,1-wire,2013-07-24 15:49:00,
2013-07-24 10:54:00,68.7,52.3,30.09,NE,40,0.0,0.0,56,-99.99,,,0.00,1-wire,2013-07-24 15:54:00,
2013-07-24 10:59:00,69.2,52.5,30.10,NE,40,0.0,0.0,55,-99.99,,,0.00,1-wire,2013-07-24 15:59:00,
2013-07-24 11:04:00,69.9,51.9,30.09,NE,40,2.0,6.0,53,-99.99,,,0.00,1-wire,2013-07-24 16:04:00,
2013-07-24 11:09:00,69.3,51.0,30.10,North,350,2.0,6.0,52,-99.99,,,0.00,1-wire,2013-07-24 16:09:00,
2013-07-24 11:14:00,69.5,51.2,30.10,North,350,0.0,3.0,52,-99.99,,,0.00,1-wire,2013-07-24 16:14:00,
2013-07-24 11:19:00,69.1,49.9,30.10,North,350,2.0,6.0,50,-99.99,,,0.00,1-wire,2013-07-24 16:19:00,
2013-07-24 11:24:00,69.7,50.1,30.10,NNW,345,4.0,9.0,50,-99.99,,,0.00,1-wire,2013-07-24 16:24:00,
2013-07-24 11:29:00,69.6,50.5,30.10,NNW,345,1.0,6.0,51,-99.99,,,0.00,1-wire,2013-07-24 16:29:00,
2013-07-24 11:34:00,70.5,53.7,30.10,NNW,345,1.0,3.0,55,-99.99,,,0.00,1-wire,2013-07-24 16:34:00,
2013-07-24 11:39:00,69.9,51.5,30.10,NNW,347,1.0,3.0,52,-99.99,,,0.00,1-wire,2013-07-24 16:39:00,
2013-07-24 11:44:00,69.3,51.0,30.10,NNW,347,3.0,8.0,52,-99.99,,,0.00,1-wire,2013-07-24 16:44:00,
2013-07-24 11:50:00,69.6,51.7,30.10,NNW,347,3.0,6.0,53,-99.99,,,0.00,1-wire,2013-07-24 16:50:00,
2013-07-24 11:56:00,70.1,52.9,30.10,NNW,347,1.0,3.0,54,-99.99,,,0.00,1-wire,2013-07-24 16:56:00,
2013-07-24 12:02:00,70.4,50.5,30.10,NNW,347,3.0,6.0,49,-99.99,,,0.00,1-wire,2013-07-24 17:02:00,
2013-07-24 12:07:00,70.9,51.6,30.10,NNE,20,0.0,3.0,51,-99.99,,,0.00,1-wire,2013-07-24 17:07:00,
2013-07-24 12:12:00,71.4,53.6,30.10,NNE,20,0.0,3.0,53,-99.99,,,0.00,1-wire,2013-07-24 17:12:00,
2013-07-24 12:18:00,71.6,50.7,30.10,NNE,20,1.0,6.0,48,-99.99,,,0.00,1-wire,2013-07-24 17:18:00,
2013-07-24 12:23:00,71.5,51.4,30.10,NNE,18,1.0,6.0,49,-99.99,,,0.00,1-wire,2013-07-24 17:23:00,
2013-07-24 12:28:00,71.1,52.4,30.10,NNE,18,1.0,3.0,52,-99.99,,,0.00,1-wire,2013-07-24 17:28:00,
2013-07-24 12:34:00,70.7,51.9,30.10,NNE,18,0.0,3.0,51,-99.99,,,0.00,1-wire,2013-07-24 17:34:00,
2013-07-24 12:40:00,70.7,51.5,30.10,NNE,19,0.0,3.0,51,-99.99,,,0.00,1-wire,2013-07-24 17:40:00,
2013-07-24 12:45:00,70.9,50.8,30.09,NNE,19,1.0,3.0,49,-99.99,,,0.00,1-wire,2013-07-24 17:45:00,
2013-07-24 12:50:00,70.7,51.2,30.09,NNE,19,0.0,3.0,50,-99.99,,,0.00,1-wire,2013-07-24 17:50:00,
2013-07-24 12:56:00,70.6,52.1,30.09,North,8,1.0,3.0,52,-99.99,,,0.00,1-wire,2013-07-24 17:56:00,
2013-07-24 13:01:00,72.3,53.0,30.08,North,8,2.0,6.0,51,-99.99,,,0.00,1-wire,2013-07-24 18:01:00,
2013-07-24 13:06:00,71.1,50.6,30.08,NE,46,2.0,6.0,48,-99.99,,,0.00,1-wire,2013-07-24 18:06:00,
2013-07-24 13:11:00,70.9,50.9,30.08,NE,46,0.0,3.0,49,-99.99,,,0.00,1-wire,2013-07-24 18:11:00,
2013-07-24 13:16:00,71.9,52.4,30.08,NE,46,2.0,3.0,50,-99.99,,,0.00,1-wire,2013-07-24 18:16:00,
2013-07-24 13:21:00,71.8,51.3,30.08,North,353,2.0,5.0,48,-99.99,,,0.00,1-wire,2013-07-24 18:21:00,
2013-07-24 13:26:00,71.7,51.7,30.07,North,353,2.0,6.0,49,-99.99,,,0.00,1-wire,2013-07-24 18:26:00,
2013-07-24 13:31:00,72.5,51.3,30.07,North,353,4.0,9.0,47,-99.99,,,0.00,1-wire,2013-07-24 18:31:00,
2013-07-24 13:36:00,71.1,51.5,30.07,NW,320,1.0,3.0,50,-99.99,,,0.00,1-wire,2013-07-24 18:36:00,
2013-07-24 13:41:00,72.0,52.1,30.08,NW,320,2.0,6.0,50,-99.99,,,0.00,1-wire,2013-07-24 18:41:00,
2013-07-24 13:46:00,72.6,50.4,30.08,NW,320,0.0,3.0,46,-99.99,,,0.00,1-wire,2013-07-24 18:46:00,
2013-07-24 13:51:00,72.4,50.3,30.07,North,0,2.0,6.0,46,-99.99,,,0.00,1-wire,2013-07-24 18:51:00,
2013-07-24 13:56:00,72.5,50.7,30.08,North,0,3.0,6.0,46,-99.99,,,0.00,1-wire,2013-07-24 18:56:00,
2013-07-24 14:01:00,72.0,51.1,30.07,North,0,0.0,3.0,48,-99.99,,,0.00,1-wire,2013-07-24 19:01:00,
2013-07-24 14:07:00,71.5,50.1,30.07,NNW,347,3.0,6.0,47,-99.99,,,0.00,1-wire,2013-07-24 19:07:00,
2013-07-24 14:12:00,70.6,49.6,30.07,NNW,347,1.0,3.0,47,-99.99,,,0.00,1-wire,2013-07-24 19:12:00,
2013-07-24 14:18:00,71.8,49.7,30.07,NNW,347,3.0,6.0,46,-99.99,,,0.00,1-wire,2013-07-24 19:18:00,
2013-07-24 14:23:00,72.4,51.7,30.07,North,357,0.0,3.0,48,-99.99,,,0.00,1-wire,2013-07-24 19:23:00,
2013-07-24 14:28:00,72.5,50.6,30.07,North,357,2.0,6.0,46,-99.99,,,0.00,1-wire,2013-07-24 19:28:00,
2013-07-24 14:33:00,73.2,51.4,30.07,North,357,3.0,6.0,47,-99.99,,,0.00,1-wire,2013-07-24 19:33:00,
2013-07-24 14:38:00,72.6,51.3,30.07,North,358,1.0,3.0,47,-99.99,,,0.00,1-wire,2013-07-24 19:38:00,
2013-07-24 14:43:00,72.1,50.4,30.07,North,358,2.0,9.0,46,-99.99,,,0.00,1-wire,2013-07-24 19:43:00,
2013-07-24 14:48:00,71.5,50.1,30.07,North,358,4.0,9.0,47,-99.99,,,0.00,1-wire,2013-07-24 19:48:00,
2013-07-24 14:53:00,70.7,51.0,30.07,North,2,1.0,3.0,50,-99.99,,,0.00,1-wire,2013-07-24 19:53:00,
2013-07-24 14:58:00,70.8,51.1,30.07,North,2,3.0,8.0,50,-99.99,,,0.00,1-wire,2013-07-24 19:58:00,
2013-07-24 15:03:00,71.4,49.7,30.07,North,2,3.0,6.0,46,-99.99,,,0.00,1-wire,2013-07-24 20:03:00,
2013-07-24 15:08:00,72.8,51.8,30.07,North,7,2.0,6.0,48,-99.99,,,0.00,1-wire,2013-07-24 20:08:00,
2013-07-24 15:13:00,72.2,50.7,30.07,North,7,0.0,0.0,47,-99.99,,,0.00,1-wire,2013-07-24 20:13:00,
2013-07-24 15:18:00,72.7,51.7,30.07,North,7,0.0,3.0,48,-99.99,,,0.00,1-wire,2013-07-24 20:18:00,
2013-07-24 15:23:00,72.0,51.7,30.07,North,3,0.0,3.0,49,-99.99,,,0.00,1-wire,2013-07-24 20:23:00,
2013-07-24 15:29:00,72.4,51.0,30.07,North,3,1.0,3.0,47,-99.99,,,0.00,1-wire,2013-07-24 20:29:00,
2013-07-24 15:34:00,71.4,51.4,30.07,North,3,0.0,3.0,49,-99.99,,,0.00,1-wire,2013-07-24 20:34:00,
2013-07-24 15:39:00,72.3,49.6,30.07,NNE,17,2.0,3.0,45,-99.99,,,0.00,1-wire,2013-07-24 20:39:00,
2013-07-24 15:44:00,72.5,50.7,30.06,NNE,17,2.0,8.0,46,-99.99,,,0.00,1-wire,2013-07-24 20:44:00,
2013-07-24 15:50:00,71.8,50.6,30.06,NNE,17,1.0,3.0,47,-99.99,,,0.00,1-wire,2013-07-24 20:50:00,
2013-07-24 15:55:00,72.8,50.8,30.06,North,1,4.0,6.0,46,-99.99,,,0.00,1-wire,2013-07-24 20:55:00,
2013-07-24 16:00:00,73.0,51.0,30.07,North,1,4.0,8.0,46,-99.99,,,0.00,1-wire,2013-07-24 21:00:00,
2013-07-24 16:06:00,72.7,50.9,30.06,North,352,1.0,6.0,46,-99.99,,,0.00,1-wire,2013-07-24 21:06:00,
2013-07-24 16:11:00,72.8,52.6,30.06,North,352,0.0,3.0,49,-99.99,,,0.00,1-wire,2013-07-24 21:11:00,
2013-07-24 16:16:00,72.3,50.7,30.06,North,352,1.0,6.0,47,-99.99,,,0.00,1-wire,2013-07-24 21:16:00,
2013-07-24 16:21:00,71.9,50.2,30.06,NNE,25,2.0,6.0,46,-99.99,,,0.00,1-wire,2013-07-24 21:21:00,
2013-07-24 16:27:00,73.2,52.6,30.05,NNE,25,1.0,3.0,49,-99.99,,,0.00,1-wire,2013-07-24 21:27:00,
2013-07-24 16:33:00,72.8,50.3,30.05,NNE,25,1.0,3.0,45,-99.99,,,0.00,1-wire,2013-07-24 21:33:00,
2013-07-24 16:38:00,73.3,51.8,30.05,NE,44,2.0,3.0,47,-99.99,,,0.00,1-wire,2013-07-24 21:38:00,
2013-07-24 16:43:00,73.0,49.8,30.05,NE,44,2.0,6.0,44,-99.99,,,0.00,1-wire,2013-07-24 21:43:00,
2013-07-24 16:48:00,72.3,49.5,30.05,NE,44,2.0,6.0,45,-99.99,,,0.00,1-wire,2013-07-24 21:48:00,
2013-07-24 16:54:00,72.6,49.9,30.05,NNE,23,3.0,6.0,45,-99.99,,,0.00,1-wire,2013-07-24 21:54:00,
2013-07-24 16:59:00,73.2,50.2,30.05,NNE,23,1.0,3.0,44,-99.99,,,0.00,1-wire,2013-07-24 21:59:00,
2013-07-24 17:04:00,73.2,50.9,30.05,NNE,23,1.0,3.0,46,-99.99,,,0.00,1-wire,2013-07-24 22:04:00,
2013-07-24 17:10:00,73.4,51.2,30.05,NE,34,2.0,6.0,46,-99.99,,,0.00,1-wire,2013-07-24 22:10:00,
2013-07-24 17:15:00,73.5,50.7,30.05,NE,34,4.0,6.0,45,-99.99,,,0.00,1-wire,2013-07-24 22:15:00,
2013-07-24 17:20:00,72.5,50.2,30.05,NE,34,1.0,3.0,45,-99.99,,,0.00,1-wire,2013-07-24 22:20:00,
2013-07-24 17:26:00,72.7,50.8,30.05,NNE,30,1.0,3.0,46,-99.99,,,0.00,1-wire,2013-07-24 22:26:00,
2013-07-24 17:31:00,72.7,51.3,30.05,NNE,30,1.0,6.0,47,-99.99,,,0.00,1-wire,2013-07-24 22:31:00,
2013-07-24 17:37:00,72.6,50.0,30.05,NNE,28,0.0,0.0,45,-99.99,,,0.00,1-wire,2013-07-24 22:37:00,
2013-07-24 17:42:00,72.3,50.8,30.05,NNE,28,1.0,6.0,47,-99.99,,,0.00,1-wire,2013-07-24 22:42:00,
2013-07-24 17:47:00,72.6,50.8,30.05,NNE,28,1.0,3.0,46,-99.99,,,0.00,1-wire,2013-07-24 22:47:00,
2013-07-24 17:52:00,72.3,49.3,30.05,NE,36,1.0,3.0,44,-99.99,,,0.00,1-wire,2013-07-24 22:52:00,
2013-07-24 17:57:00,72.9,50.9,30.05,NE,36,0.0,0.0,46,-99.99,,,0.00,1-wire,2013-07-24 22:57:00,
2013-07-24 18:02:00,73.1,51.5,30.05,NE,36,0.0,0.0,47,-99.99,,,0.00,1-wire,2013-07-24 23:02:00,
2013-07-24 18:07:00,72.1,51.7,30.05,North,0,0.0,3.0,49,-99.99,,,0.00,1-wire,2013-07-24 23:07:00,
2013-07-24 18:12:00,71.9,50.4,30.05,North,0,0.0,0.0,47,-99.99,,,0.00,1-wire,2013-07-24 23:12:00,
2013-07-24 18:17:00,72.0,50.4,30.05,North,0,0.0,0.0,47,-99.99,,,0.00,1-wire,2013-07-24 23:17:00,
2013-07-24 18:22:00,72.0,51.2,30.05,NNW,346,0.0,0.0,48,-99.99,,,0.00,1-wire,2013-07-24 23:22:00,
2013-07-24 18:27:00,71.8,49.8,30.05,NNW,346,0.0,0.0,46,-99.99,,,0.00,1-wire,2013-07-24 23:27:00,
2013-07-24 18:32:00,72.0,50.0,30.05,NNW,346,0.0,0.0,46,-99.99,,,0.00,1-wire,2013-07-24 23:32:00,
2013-07-24 18:37:00,71.7,50.8,30.05,NW,320,0.0,0.0,48,-99.99,,,0.00,1-wire,2013-07-24 23:37:00,
2013-07-24 18:42:00,72.2,52.4,30.04,NW,320,0.0,0.0,50,-99.99,,,0.00,1-wire,2013-07-24 23:42:00,
2013-07-24 18:47:00,71.7,51.3,30.05,NW,320,0.0,0.0,49,-99.99,,,0.00,1-wire,2013-07-24 23:47:00,
2013-07-24 18:52:00,71.4,51.3,30.04,NNW,339,1.0,3.0,49,-99.99,,,0.00,1-wire,2013-07-24 23:52:00,
2013-07-24 18:57:00,71.6,53.3,30.04,NNW,339,0.0,0.0,53,-99.99,,,0.00,1-wire,2013-07-24 23:57:00,
2013-07-24 19:02:00,71.1,50.7,30.04,NNW,339,0.0,0.0,48,-99.99,,,0.00,1-wire,2013-07-25 00:02:00,
2013-07-24 19:07:00,71.1,52.8,30.05,North,356,0.0,0.0,52,-99.99,,,0.00,1-wire,2013-07-25 00:07:00,
2013-07-24 19:12:00,71.1,54.1,30.05,North,356,0.0,0.0,55,-99.99,,,0.00,1-wire,2013-07-25 00:12:00,
2013-07-24 19:17:00,70.9,51.5,30.05,North,356,0.0,0.0,50,-99.99,,,0.00,1-wire,2013-07-25 00:17:00,
2013-07-24 19:23:00,70.6,52.3,30.05,North,356,0.0,0.0,52,-99.99,,,0.00,1-wire,2013-07-25 00:23:00,
2013-07-24 19:29:00,70.2,52.2,30.05,North,356,0.0,0.0,53,-99.99,,,0.00,1-wire,2013-07-25 00:29:00,
2013-07-24 19:34:00,70.4,51.8,30.05,North,356,0.0,0.0,52,-99.99,,,0.00,1-wire,2013-07-25 00:34:00,
2013-07-24 19:39:00,70.4,53.3,30.05,North,10,0.0,0.0,55,-99.99,,,0.00,1-wire,2013-07-25 00:39:00,
2013-07-24 19:44:00,70.1,53.1,30.05,North,10,0.0,0.0,55,-99.99,,,0.00,1-wire,2013-07-25 00:44:00,
2013-07-24 19:50:00,69.6,52.4,30.05,North,10,0.0,0.0,54,-99.99,,,0.00,1-wire,2013-07-25 00:50:00,
2013-07-24 19:56:00,69.6,53.3,30.05,North,9,0.0,0.0,56,-99.99,,,0.00,1-wire,2013-07-25 00:56:00,
2013-07-24 20:01:00,69.1,53.2,30.04,North,9,0.0,0.0,57,-99.99,,,0.00,1-wire,2013-07-25 01:01:00,
2013-07-24 20:06:00,68.6,53.3,30.04,NNW,338,0.0,0.0,58,-99.99,,,0.00,1-wire,2013-07-25 01:06:00,
2013-07-24 20:11:00,68.2,53.5,30.04,NNW,338,0.0,0.0,59,-99.99,,,0.00,1-wire,2013-07-25 01:11:00,
2013-07-24 20:17:00,67.9,53.3,30.04,NNW,338,0.0,0.0,59,-99.99,,,0.00,1-wire,2013-07-25 01:17:00,
2013-07-24 20:22:00,67.8,53.9,30.04,NNE,21,0.0,0.0,61,-99.99,,,0.00,1-wire,2013-07-25 01:22:00,
2013-07-24 20:27:00,67.5,54.4,30.04,NNE,21,0.0,0.0,63,-99.99,,,0.00,1-wire,2013-07-25 01:27:00,
2013-07-24 20:32:00,66.9,53.4,30.04,NNE,21,0.0,0.0,62,-99.99,,,0.00,1-wire,2013-07-25 01:32:00,
2013-07-24 20:37:00,66.1,53.5,30.04,NNE,30,0.0,0.0,64,-99.99,,,0.00,1-wire,2013-07-25 01:37:00,
2013-07-24 20:42:00,65.9,53.1,30.04,NNE,30,0.0,0.0,63,-99.99,,,0.00,1-wire,2013-07-25 01:42:00,
2013-07-24 20:47:00,65.5,52.8,30.03,NNE,30,0.0,0.0,63,-99.99,,,0.00,1-wire,2013-07-25 01:47:00,
2013-07-24 20:52:00,65.2,53.6,30.04,NNE,21,0.0,0.0,66,-99.99,,,0.00,1-wire,2013-07-25 01:52:00,
2013-07-24 20:57:00,64.3,53.5,30.04,NNE,21,0.0,0.0,68,-99.99,,,0.00,1-wire,2013-07-25 01:57:00,
2013-07-24 21:02:00,64.3,53.4,30.04,NNE,21,0.0,0.0,68,-99.99,,,0.00,1-wire,2013-07-25 02:02:00,
2013-07-24 21:07:00,63.9,52.8,30.04,NNE,16,0.0,0.0,67,-99.99,,,0.00,1-wire,2013-07-25 02:07:00,
2013-07-24 21:12:00,64.1,53.3,30.04,NNE,16,0.0,0.0,68,-99.99,,,0.00,1-wire,2013-07-25 02:12:00,
2013-07-24 21:17:00,64.1,53.2,30.05,NNE,16,0.0,0.0,68,-99.99,,,0.00,1-wire,2013-07-25 02:17:00,
2013-07-24 21:22:00,63.9,53.3,30.05,NNE,19,0.0,0.0,68,-99.99,,,0.00,1-wire,2013-07-25 02:22:00,
2013-07-24 21:27:00,63.7,53.4,30.05,NNE,19,0.0,0.0,69,-99.99,,,0.00,1-wire,2013-07-25 02:27:00,
2013-07-24 21:32:00,63.7,53.9,30.05,NNE,19,0.0,0.0,70,-99.99,,,0.00,1-wire,2013-07-25 02:32:00,
2013-07-24 21:37:00,63.6,53.5,30.05,North,7,0.0,0.0,70,-99.99,,,0.00,1-wire,2013-07-25 02:37:00,
2013-07-24 21:42:00,63.3,53.4,30.05,North,7,0.0,0.0,70,-99.99,,,0.00,1-wire,2013-07-25 02:42:00,
2013-07-24 21:47:00,62.8,53.5,30.05,North,7,0.0,0.0,72,-99.99,,,0.00,1-wire,2013-07-25 02:47:00,
2013-07-24 21:52:00,62.6,53.5,30.05,NNE,12,0.0,0.0,72,-99.99,,,0.00,1-wire,2013-07-25 02:52:00,
2013-07-24 21:57:00,62.5,53.5,30.05,NNE,12,0.0,0.0,72,-99.99,,,0.00,1-wire,2013-07-25 02:57:00,
2013-07-24 22:02:00,62.4,53.3,30.05,NNE,12,0.0,0.0,72,-99.99,,,0.00,1-wire,2013-07-25 03:02:00,
2013-07-24 22:07:00,62.4,53.7,30.05,North,10,0.0,0.0,73,-99.99,,,0.00,1-wire,2013-07-25 03:07:00,
2013-07-24 22:12:00,62.1,53.4,30.05,North,10,0.0,0.0,73,-99.99,,,0.00,1-wire,2013-07-25 03:12:00,
2013-07-24 22:17:00,62.1,53.5,30.05,North,10,0.0,0.0,73,-99.99,,,0.00,1-wire,2013-07-25 03:17:00,
2013-07-24 22:22:00,61.9,53.6,30.05,North,6,0.0,0.0,74,-99.99,,,0.00,1-wire,2013-07-25 03:22:00,
2013-07-24 22:27:00,61.8,53.7,30.05,North,6,0.0,0.0,75,-99.99,,,0.00,1-wire,2013-07-25 03:27:00,
2013-07-24 22:32:00,61.8,53.7,30.06,North,6,0.0,0.0,75,-99.99,,,0.00,1-wire,2013-07-25 03:32:00,
2013-07-24 22:38:00,61.7,53.6,30.05,North,358,0.0,0.0,75,-99.99,,,0.00,1-wire,2013-07-25 03:38:00,
2013-07-24 22:43:00,61.5,53.6,30.06,North,358,0.0,0.0,75,-99.99,,,0.00,1-wire,2013-07-25 03:43:00,
2013-07-24 22:49:00,61.7,53.8,30.06,North,358,0.0,0.0,75,-99.99,,,0.00,1-wire,2013-07-25 03:49:00,
2013-07-24 22:55:00,61.6,53.6,30.06,North,352,0.0,0.0,75,-99.99,,,0.00,1-wire,2013-07-25 03:55:00,
2013-07-24 23:01:00,61.2,53.5,30.07,North,352,0.0,0.0,76,-99.99,,,0.00,1-wire,2013-07-25 04:01:00,
2013-07-24 23:02:00,61.4,53.7,30.06,North,352,0.0,0.0,76,-99.99,,,0.00,1-wire,2013-07-25 04:02:00,
2013-07-24 23:03:00,61.4,53.8,30.06,North,352,0.0,0.0,76,-99.99,,,0.00,1-wire,2013-07-25 04:03:00,
2013-07-24 23:07:00,61.2,53.7,30.07,North,354,0.0,0.0,76,-99.99,,,0.00,1-wire,2013-07-25 04:07:00,
2013-07-24 23:10:00,61.2,53.9,30.07,North,354,0.0,0.0,77,-99.99,,,0.00,1-wire,2013-07-25 04:10:00,
2013-07-24 23:15:00,61.4,54.1,30.07,North,354,0.0,0.0,77,-99.99,,,0.00,1-wire,2013-07-25 04:15:00,
2013-07-24 23:21:00,61.3,53.8,30.07,North,354,0.0,0.0,76,-99.99,,,0.00,1-wire,2013-07-25 04:21:00,
2013-07-24 23:27:00,61.2,53.9,30.07,North,354,0.0,0.0,77,-99.99,,,0.00,1-wire,2013-07-25 04:27:00,
2013-07-24 23:33:00,61.2,54.0,30.07,North,354,0.0,0.0,77,-99.99,,,0.00,1-wire,2013-07-25 04:33:00,
2013-07-24 23:38:00,61.2,54.0,30.07,North,352,0.0,0.0,77,-99.99,,,0.00,1-wire,2013-07-25 04:38:00,
2013-07-24 23:43:00,61.2,54.0,30.07,North,352,0.0,0.0,77,-99.99,,,0.00,1-wire,2013-07-25 04:43:00,
2013-07-24 23:48:00,61.0,53.8,30.07,North,352,0.0,0.0,77,-99.99,,,0.00,1-wire,2013-07-25 04:48:00,
2013-07-24 23:53:00,60.9,53.7,30.07,NNW,343,0.0,0.0,77,-99.99,,,0.00,1-wire,2013-07-25 04:53:00,
2013-07-24 23:59:00,60.9,53.7,30.07,NNW,343,0.0,0.0,77,-99.99,,,0.00,1-wire,2013-07-25 04:59:00,